createdAt,value
2019-05-20T00:02:23.174Z,17.90
2019-05-20T00:07:00.085Z,17.50
2019-05-20T00:11:53.645Z,17.50
2019-05-20T00:16:41.921Z,18.30
2019-05-20T00:21:32.819Z,18.50
2019-05-20T00:26:23.786Z,18.10
2019-05-20T00:31:15.441Z,17.30
2019-05-20T00:36:06.350Z,17.30
2019-05-20T00:40:57.991Z,17.60
2019-05-20T00:45:49.636Z,18.20
2019-05-20T00:50:40.534Z,18.20
2019-05-20T00:55:32.174Z,17.50
2019-05-20T01:00:23.857Z,17.10
2019-05-20T01:05:14.757Z,17.10
2019-05-20T01:10:05.700Z,16.80
2019-05-20T01:14:56.609Z,17.00
2019-05-20T01:19:47.509Z,17.70
2019-05-20T01:24:38.425Z,17.80
2019-05-20T01:29:29.334Z,17.40
2019-05-20T01:34:20.231Z,16.90
2019-05-20T01:39:11.875Z,16.30
2019-05-20T01:44:03.514Z,16.90
2019-05-20T01:48:54.431Z,16.80
2019-05-20T01:53:46.073Z,17.10
2019-05-20T01:58:39.532Z,16.60
2019-05-20T02:03:32.088Z,16.60
2019-05-20T02:08:19.618Z,16.30
2019-05-20T02:13:10.537Z,16.00
2019-05-20T02:18:01.470Z,16.20
2019-05-20T02:22:53.168Z,16.80
2019-05-20T02:27:44.072Z,16.80
2019-05-20T02:32:35.011Z,16.40
2019-05-20T02:37:25.925Z,16.00
2019-05-20T02:42:16.844Z,15.70
2019-05-20T02:47:07.761Z,15.60
2019-05-20T02:51:58.675Z,16.40
2019-05-20T02:56:49.578Z,16.60
2019-05-20T03:01:40.480Z,16.20
2019-05-20T03:06:31.419Z,15.80
2019-05-20T03:11:22.347Z,15.50
2019-05-20T03:16:15.585Z,15.20
2019-05-20T03:21:04.200Z,15.70
2019-05-20T03:25:55.129Z,16.30
2019-05-20T03:30:46.046Z,16.10
2019-05-20T03:35:36.960Z,15.70
2019-05-20T03:40:27.877Z,15.40
2019-05-20T03:45:18.783Z,15.10
2019-05-20T03:50:09.682Z,15.20
2019-05-20T03:55:00.595Z,16.10
2019-05-20T03:59:51.563Z,16.20
2019-05-20T04:05:00.259Z,15.90
2019-05-20T04:09:34.178Z,15.30
2019-05-20T04:14:25.080Z,15.30
2019-05-20T04:19:16.005Z,15.20
2019-05-20T04:24:06.924Z,15.80
2019-05-20T04:28:57.831Z,16.50
2019-05-20T04:33:48.741Z,16.30
2019-05-20T04:38:39.646Z,16.00
2019-05-20T04:43:31.290Z,15.50
2019-05-20T04:48:22.939Z,15.70
2019-05-20T04:53:13.857Z,15.70
2019-05-20T04:58:04.773Z,16.60
2019-05-20T05:02:55.687Z,16.80
2019-05-20T05:07:47.357Z,16.10
2019-05-20T05:12:38.266Z,16.10
2019-05-20T05:17:29.162Z,15.90
2019-05-20T05:22:20.067Z,15.80
2019-05-20T05:27:11.694Z,17.10
2019-05-20T05:32:02.609Z,17.10
2019-05-20T05:36:53.533Z,16.90
2019-05-20T05:41:45.302Z,16.30
2019-05-20T05:46:36.198Z,16.30
2019-05-20T05:51:27.854Z,16.60
2019-05-20T05:56:18.824Z,16.60
2019-05-20T06:01:09.752Z,17.40
2019-05-20T06:06:11.317Z,17.50
2019-05-20T06:10:52.351Z,16.90
2019-05-20T06:15:43.263Z,16.90
2019-05-20T06:20:34.157Z,16.80
2019-05-20T06:25:25.795Z,17.90
2019-05-20T06:30:16.778Z,17.80
2019-05-20T06:35:07.650Z,18.10
2019-05-20T06:39:58.562Z,18.00
2019-05-20T06:44:52.925Z,17.60
2019-05-20T06:49:41.155Z,17.60
2019-05-20T06:54:32.097Z,17.60
2019-05-20T06:59:23.005Z,18.40
2019-05-20T07:04:13.921Z,19.00
2019-05-20T07:09:04.831Z,18.90
2019-05-20T07:13:55.741Z,18.80
2019-05-20T07:18:46.657Z,18.70
2019-05-20T07:23:37.573Z,18.70
2019-05-20T07:28:28.474Z,19.30
2019-05-20T07:33:19.369Z,20.10
2019-05-20T07:38:10.281Z,20.20
2019-05-20T07:43:01.994Z,19.90
2019-05-20T07:47:53.620Z,19.70
2019-05-20T07:52:44.536Z,19.70
2019-05-20T07:57:35.430Z,20.00
2019-05-20T08:02:26.341Z,20.70
2019-05-20T08:07:27.296Z,20.90
2019-05-20T08:12:08.165Z,20.70
2019-05-20T08:16:59.803Z,20.40
2019-05-20T08:21:51.437Z,20.60
2019-05-20T08:26:43.178Z,21.40
2019-05-20T08:31:34.057Z,21.40
2019-05-20T08:36:24.959Z,21.90
2019-05-20T08:41:16.641Z,21.60
2019-05-20T08:46:08.305Z,21.50
2019-05-20T08:50:59.202Z,21.50
2019-05-20T08:55:50.121Z,21.50
2019-05-20T09:00:41.764Z,22.70
2019-05-20T09:05:32.688Z,22.60
2019-05-20T09:10:23.600Z,22.60
2019-05-20T09:15:14.511Z,22.40
2019-05-20T09:20:06.167Z,22.10
2019-05-20T09:24:57.270Z,22.00
2019-05-20T09:29:48.269Z,22.50
2019-05-20T09:34:39.181Z,23.20
2019-05-20T09:39:30.087Z,23.20
2019-05-20T09:44:21.797Z,22.70
2019-05-20T09:49:12.706Z,22.70
2019-05-20T09:54:03.602Z,22.60
2019-05-20T09:58:55.257Z,23.50
2019-05-20T10:03:46.154Z,23.50
2019-05-20T10:08:44.143Z,23.70
2019-05-20T10:13:28.703Z,23.70
2019-05-20T10:18:36.095Z,23.40
2019-05-20T10:23:15.658Z,23.30
2019-05-20T10:28:02.263Z,23.60
2019-05-20T10:32:53.183Z,24.30
2019-05-20T10:37:44.852Z,24.60
2019-05-20T10:42:35.763Z,24.60
2019-05-20T10:47:26.679Z,24.40
2019-05-20T10:52:17.590Z,24.20
2019-05-20T10:57:09.279Z,25.30
2019-05-20T11:02:00.174Z,25.30
2019-05-20T11:06:51.085Z,25.60
2019-05-20T11:11:42.006Z,25.50
2019-05-20T11:16:32.925Z,25.20
2019-05-20T11:21:23.826Z,25.00
2019-05-20T11:26:15.462Z,25.80
2019-05-20T11:31:07.103Z,26.20
2019-05-20T11:35:57.996Z,26.20
2019-05-20T11:40:48.894Z,25.90
2019-05-20T11:45:39.790Z,25.50
2019-05-20T11:50:30.741Z,25.30
2019-05-20T11:55:21.688Z,25.30
2019-05-20T12:00:13.341Z,26.10
2019-05-20T12:05:04.246Z,26.10
2019-05-20T12:09:55.904Z,25.40
2019-05-20T12:14:46.870Z,25.40
2019-05-20T12:19:37.741Z,25.20
2019-05-20T12:24:28.655Z,25.30
2019-05-20T12:29:20.301Z,26.20
2019-05-20T12:34:11.214Z,26.20
2019-05-20T12:39:02.130Z,25.90
2019-05-20T12:44:10.132Z,25.60
2019-05-20T12:48:44.075Z,25.50
2019-05-20T12:53:35.683Z,26.40
2019-05-20T12:58:26.594Z,26.40
2019-05-20T13:03:18.322Z,26.50
2019-05-20T13:08:10.113Z,26.20
2019-05-20T13:13:01.030Z,26.20
2019-05-20T13:17:51.928Z,25.90
2019-05-20T13:22:42.834Z,26.20
2019-05-20T13:27:33.735Z,26.70
2019-05-20T13:32:25.519Z,26.70
2019-05-20T13:37:16.442Z,26.70
2019-05-20T13:42:07.350Z,26.30
2019-05-20T13:46:58.272Z,26.00
2019-05-20T13:51:49.179Z,26.20
2019-05-20T13:56:40.088Z,26.80
2019-05-20T14:01:31.000Z,26.90
2019-05-20T14:06:21.941Z,26.50
2019-05-20T14:11:12.847Z,26.00
2019-05-20T14:16:03.757Z,25.70
2019-05-20T14:36:52.689Z,25.20
2019-05-20T14:41:40.304Z,24.90
2019-05-20T14:46:31.202Z,24.80
2019-05-20T14:51:22.124Z,25.30
2019-05-20T14:56:13.049Z,25.50
2019-05-20T15:01:03.983Z,25.20
2019-05-20T15:05:54.935Z,24.60
2019-05-20T15:10:45.864Z,24.20
2019-05-20T15:15:37.506Z,24.20
2019-05-20T15:20:29.161Z,24.50
2019-05-20T15:25:20.086Z,24.50
2019-05-20T15:30:11.103Z,24.20
2019-05-20T15:35:02.013Z,23.70
2019-05-20T15:39:53.027Z,23.20
2019-05-20T15:44:43.926Z,22.90
2019-05-20T15:49:34.834Z,23.20
2019-05-20T15:54:25.748Z,23.40
2019-05-20T15:59:16.650Z,23.10
2019-05-20T16:04:07.591Z,22.50
2019-05-20T16:08:58.499Z,21.90
2019-05-20T16:13:49.419Z,21.50
2019-05-20T16:18:40.321Z,21.70
2019-05-20T16:23:31.223Z,22.10
2019-05-20T16:28:22.135Z,21.90
2019-05-20T16:33:13.043Z,21.30
2019-05-20T16:38:03.947Z,20.90
2019-05-20T16:42:55.584Z,20.90
2019-05-20T16:47:47.257Z,21.40
2019-05-20T16:52:38.174Z,21.40
2019-05-20T16:57:29.120Z,21.30
2019-05-20T17:02:20.092Z,20.80
2019-05-20T17:07:11.009Z,20.50
2019-05-20T17:12:01.902Z,20.10
2019-05-20T17:16:53.547Z,21.20
2019-05-20T17:21:45.182Z,21.30
2019-05-20T17:26:36.822Z,20.80
2019-05-20T17:31:30.834Z,20.40
2019-05-20T17:36:19.434Z,20.40
2019-05-20T17:41:10.334Z,20.20
2019-05-20T17:46:01.238Z,20.30
2019-05-20T17:50:52.126Z,21.00
2019-05-20T17:55:43.789Z,20.80
2019-05-20T18:00:34.699Z,20.80
2019-05-20T18:05:25.614Z,20.40
2019-05-20T18:10:16.533Z,20.00
2019-05-20T18:15:07.440Z,19.90
2019-05-20T18:19:59.074Z,20.80
2019-05-20T18:24:50.721Z,20.50
2019-05-20T18:29:41.628Z,20.40
2019-05-20T18:34:33.285Z,19.60
2019-05-20T18:39:24.203Z,19.60
2019-05-20T18:44:15.122Z,19.40
2019-05-20T18:49:06.022Z,20.00
2019-05-20T18:53:57.676Z,20.30
2019-05-20T18:58:48.594Z,20.30
2019-05-20T19:03:39.618Z,19.80
2019-05-20T19:08:31.235Z,19.10
2019-05-20T19:13:22.884Z,19.60
2019-05-20T19:18:13.822Z,19.60
2019-05-20T19:23:04.743Z,20.30
2019-05-20T19:27:55.662Z,20.10
2019-05-20T19:32:46.567Z,19.60
2019-05-20T19:37:37.462Z,19.20
2019-05-20T19:42:29.115Z,19.20
2019-05-20T19:47:20.018Z,19.10
2019-05-20T19:52:11.671Z,20.10
2019-05-20T19:57:02.602Z,20.00
2019-05-20T20:01:53.517Z,19.60
2019-05-20T20:06:44.428Z,19.20
2019-05-20T20:11:35.327Z,18.90
2019-05-20T20:16:26.966Z,19.40
2019-05-20T20:21:18.642Z,20.00
2019-05-20T20:26:09.566Z,19.90
2019-05-20T20:31:00.462Z,19.60
2019-05-20T20:35:51.365Z,19.10
2019-05-20T20:40:42.263Z,18.70
2019-05-20T20:45:33.917Z,18.90
2019-05-20T20:50:24.823Z,18.90
2019-05-20T20:55:16.455Z,19.20
2019-05-20T21:00:08.154Z,18.80
2019-05-20T21:04:59.081Z,18.80
2019-05-20T21:09:50.310Z,18.40
2019-05-20T21:14:41.214Z,18.10
2019-05-20T21:19:32.135Z,18.20
2019-05-20T21:24:23.050Z,19.10
2019-05-20T21:29:13.959Z,19.10
2019-05-20T21:34:04.874Z,18.70
2019-05-20T21:38:55.777Z,18.30
2019-05-20T21:43:46.687Z,17.90
2019-05-20T21:48:37.604Z,17.80
2019-05-20T21:53:28.512Z,18.50
2019-05-20T21:58:20.159Z,18.50
2019-05-20T22:03:23.624Z,18.50
2019-05-20T22:08:04.196Z,17.70
2019-05-20T22:12:53.763Z,17.60
2019-05-20T22:17:44.695Z,17.30
2019-05-20T22:22:37.341Z,18.20
2019-05-20T22:27:28.242Z,18.20
2019-05-20T22:32:19.161Z,18.10
2019-05-20T22:37:10.063Z,17.60
2019-05-20T22:42:01.750Z,16.90
2019-05-20T22:46:52.684Z,16.90
2019-05-20T22:51:43.601Z,16.90
2019-05-20T22:56:34.517Z,17.60
2019-05-20T23:01:25.420Z,17.70
2019-05-20T23:06:16.338Z,17.30
2019-05-20T23:11:07.242Z,16.90
2019-05-20T23:15:58.142Z,16.50
2019-05-20T23:20:49.067Z,16.30
2019-05-20T23:25:39.962Z,16.90
2019-05-20T23:30:31.594Z,17.00
2019-05-20T23:35:23.222Z,16.50
2019-05-20T23:40:14.877Z,16.10
2019-05-20T23:45:05.785Z,16.10
2019-05-20T23:49:57.423Z,16.10
2019-05-20T23:54:49.068Z,16.70
2019-05-20T23:59:39.972Z,16.70
